createdAt,value
2019-05-16T00:00:19.219Z,5.00
2019-05-16T00:02:50.662Z,9.10
2019-05-16T00:05:22.495Z,7.77
2019-05-16T00:07:54.054Z,5.80
2019-05-16T00:10:27.916Z,4.70
2019-05-16T00:12:59.752Z,5.23
2019-05-16T00:15:31.587Z,5.20
2019-05-16T00:18:03.238Z,5.13
2019-05-16T00:20:34.799Z,5.20
2019-05-16T00:23:07.951Z,4.80
2019-05-16T00:25:39.629Z,6.40
2019-05-16T00:28:11.191Z,5.70
2019-05-16T00:30:42.880Z,5.07
2019-05-16T00:33:15.514Z,4.20
2019-05-16T00:35:48.175Z,4.50
2019-05-16T00:38:20.417Z,8.83
2019-05-16T00:40:51.979Z,4.57
2019-05-16T00:43:23.525Z,5.50
2019-05-16T00:45:55.137Z,4.47
2019-05-16T00:48:28.677Z,5.40
2019-05-16T00:50:59.936Z,5.33
2019-05-16T00:53:31.529Z,7.10
2019-05-16T00:56:03.142Z,4.83
2019-05-16T00:58:38.028Z,8.17
2019-05-16T01:01:09.653Z,7.80
2019-05-16T01:03:41.247Z,7.23
2019-05-16T01:06:18.746Z,6.60
2019-05-16T01:08:48.572Z,6.47
2019-05-16T01:11:19.445Z,5.40
2019-05-16T01:13:51.097Z,5.50
2019-05-16T01:16:22.646Z,4.40
2019-05-16T01:18:54.232Z,5.60
2019-05-16T01:21:25.794Z,5.90
2019-05-16T01:23:58.616Z,7.33
2019-05-16T01:26:30.270Z,6.40
2019-05-16T01:29:01.851Z,8.70
2019-05-16T01:31:33.371Z,5.00
2019-05-16T01:34:04.962Z,8.23
2019-05-16T01:36:38.000Z,5.57
2019-05-16T01:39:09.869Z,9.43
2019-05-16T01:41:41.484Z,5.70
2019-05-16T01:44:13.048Z,6.43
2019-05-16T01:46:44.601Z,6.13
2019-05-16T01:49:16.157Z,6.57
2019-05-16T01:51:48.426Z,6.17
2019-05-16T01:54:20.060Z,6.60
2019-05-16T01:56:51.633Z,4.83
2019-05-16T01:59:23.179Z,5.40
2019-05-16T02:01:54.728Z,6.70
2019-05-16T02:04:28.617Z,6.90
2019-05-16T02:06:59.566Z,6.90
2019-05-16T02:09:31.114Z,5.57
2019-05-16T02:12:02.675Z,6.67
2019-05-16T02:14:34.219Z,6.60
2019-05-16T02:17:05.874Z,6.30
2019-05-16T02:19:38.523Z,8.07
2019-05-16T02:22:10.194Z,7.57
2019-05-16T02:24:41.748Z,7.80
2019-05-16T02:27:13.343Z,7.60
2019-05-16T02:29:44.874Z,7.37
2019-05-16T02:32:16.430Z,7.33
2019-05-16T02:34:47.999Z,6.20
2019-05-16T02:37:29.297Z,5.00
2019-05-16T02:39:54.501Z,5.40
2019-05-16T02:42:26.322Z,6.33
2019-05-16T02:44:57.896Z,5.67
2019-05-16T02:47:30.951Z,6.57
2019-05-16T02:50:02.766Z,5.80
2019-05-16T02:52:34.311Z,5.73
2019-05-16T02:55:06.083Z,7.30
2019-05-16T02:57:41.113Z,7.90
2019-05-16T03:00:12.669Z,5.40
2019-05-16T03:02:44.407Z,6.20
2019-05-16T03:05:17.025Z,9.23
2019-05-16T03:07:51.845Z,7.37
2019-05-16T03:10:22.203Z,6.50
2019-05-16T03:12:55.685Z,6.00
2019-05-16T03:15:30.704Z,7.70
2019-05-16T03:18:04.302Z,6.67
2019-05-16T03:20:35.891Z,7.40
2019-05-16T03:23:07.445Z,6.63
2019-05-16T03:25:41.796Z,8.03
2019-05-16T03:28:12.264Z,6.30
2019-05-16T03:30:45.279Z,7.60
2019-05-16T03:33:26.185Z,6.57
2019-05-16T03:35:54.720Z,9.30
2019-05-16T03:38:23.624Z,7.17
2019-05-16T03:40:55.192Z,7.10
2019-05-16T03:43:26.714Z,6.40
2019-05-16T03:46:02.138Z,8.03
2019-05-16T03:48:32.642Z,10.30
2019-05-16T03:51:04.221Z,6.00
2019-05-16T03:53:35.767Z,5.50
2019-05-16T03:56:07.356Z,5.57
2019-05-16T03:58:41.598Z,7.30
2019-05-16T04:01:12.178Z,5.70
2019-05-16T04:03:43.695Z,8.50
2019-05-16T04:06:15.264Z,6.80
2019-05-16T04:08:46.801Z,7.03
2019-05-16T04:11:22.785Z,6.50
2019-05-16T04:13:52.740Z,7.93
2019-05-16T04:16:24.295Z,6.30
2019-05-16T04:18:55.874Z,6.57
2019-05-16T04:21:27.452Z,8.20
2019-05-16T04:24:01.242Z,6.10
2019-05-16T04:26:35.760Z,6.30
2019-05-16T04:29:05.566Z,15.10
2019-05-16T04:31:37.153Z,5.47
2019-05-16T04:34:11.496Z,11.53
2019-05-16T04:36:41.993Z,8.13
2019-05-16T04:39:13.568Z,5.40
2019-05-16T04:41:45.105Z,5.70
2019-05-16T04:44:16.798Z,9.30
2019-05-16T04:46:51.058Z,11.80
2019-05-16T04:49:21.621Z,7.13
2019-05-16T04:51:54.254Z,6.80
2019-05-16T04:54:25.838Z,7.13
2019-05-16T04:57:01.231Z,7.30
2019-05-16T04:59:31.354Z,6.97
2019-05-16T05:02:03.101Z,11.13
2019-05-16T05:04:34.660Z,9.23
2019-05-16T05:07:06.230Z,9.80
2019-05-16T05:09:40.627Z,9.63
2019-05-16T05:12:11.601Z,9.63
2019-05-16T05:14:43.388Z,7.80
2019-05-16T05:17:14.969Z,10.10
2019-05-16T05:19:46.550Z,9.47
2019-05-16T05:22:19.907Z,7.90
2019-05-16T05:24:51.390Z,9.07
2019-05-16T05:27:22.976Z,7.83
2019-05-16T05:29:55.485Z,8.80
2019-05-16T05:32:27.111Z,6.67
2019-05-16T05:34:59.833Z,8.43
2019-05-16T05:37:31.702Z,9.23
2019-05-16T05:40:03.382Z,8.90
2019-05-16T05:42:35.010Z,12.57
2019-05-16T05:45:06.946Z,9.10
2019-05-16T05:47:40.270Z,8.90
2019-05-16T05:50:12.354Z,7.47
2019-05-16T05:52:46.155Z,10.43
2019-05-16T05:55:19.803Z,9.57
2019-05-16T05:57:50.850Z,10.03
2019-05-16T06:00:22.524Z,8.50
2019-05-16T06:02:54.137Z,8.43
2019-05-16T06:05:25.868Z,8.13
2019-05-16T06:08:00.156Z,10.20
2019-05-16T06:10:31.046Z,9.27
2019-05-16T06:13:03.759Z,10.57
2019-05-16T06:15:35.416Z,9.03
2019-05-16T06:18:06.997Z,11.53
2019-05-16T06:20:40.113Z,8.63
2019-05-16T06:23:11.695Z,9.60
2019-05-16T06:25:43.288Z,9.97
2019-05-16T06:28:14.842Z,11.83
2019-05-16T06:30:46.420Z,10.07
2019-05-16T06:33:19.932Z,11.03
2019-05-16T06:35:51.669Z,11.53
2019-05-16T06:38:23.368Z,10.70
2019-05-16T06:40:54.950Z,13.33
2019-05-16T06:43:26.513Z,9.27
2019-05-16T06:46:00.351Z,10.23
2019-05-16T06:48:31.353Z,10.90
2019-05-16T06:51:03.308Z,11.20
2019-05-16T06:53:35.021Z,12.90
2019-05-16T06:56:06.594Z,9.40
2019-05-16T06:58:45.632Z,8.67
2019-05-16T07:01:11.460Z,12.17
2019-05-16T07:03:43.021Z,10.07
2019-05-16T07:06:37.850Z,9.33
2019-05-16T07:08:50.525Z,9.43
2019-05-16T07:11:21.175Z,11.50
2019-05-16T07:13:52.730Z,11.00
2019-05-16T07:16:24.322Z,9.73
2019-05-16T07:18:55.918Z,9.67
2019-05-16T07:21:27.512Z,10.40
2019-05-16T07:24:00.174Z,10.33
2019-05-16T07:26:31.820Z,10.17
2019-05-16T07:29:03.711Z,10.20
2019-05-16T07:31:35.548Z,9.47
2019-05-16T07:34:10.411Z,9.50
2019-05-16T07:36:41.446Z,10.13
2019-05-16T07:39:13.039Z,12.03
2019-05-16T07:41:44.602Z,9.10
2019-05-16T07:44:17.160Z,12.77
2019-05-16T07:46:51.255Z,10.23
2019-05-16T07:49:22.054Z,13.73
2019-05-16T07:51:53.633Z,9.13
2019-05-16T07:54:25.285Z,7.00
2019-05-16T07:57:02.235Z,9.83
2019-05-16T07:59:30.199Z,13.77
2019-05-16T08:02:21.196Z,17.80
2019-05-16T08:04:52.924Z,12.87
2019-05-16T08:07:24.481Z,19.17
2019-05-16T08:09:56.056Z,13.93
2019-05-16T08:12:27.674Z,12.10
2019-05-16T08:15:00.719Z,12.03
2019-05-16T08:17:32.697Z,13.10
2019-05-16T08:20:04.352Z,9.10
2019-05-16T08:22:35.920Z,11.90
2019-05-16T08:25:10.486Z,9.37
2019-05-16T08:27:42.612Z,8.67
2019-05-16T08:30:14.809Z,10.60
2019-05-16T08:32:46.416Z,12.03
2019-05-16T08:35:20.509Z,9.43
2019-05-16T08:37:51.680Z,9.13
2019-05-16T08:40:23.539Z,8.47
2019-05-16T08:42:55.126Z,7.90
2019-05-16T08:45:26.713Z,7.90
2019-05-16T08:48:00.228Z,13.90
2019-05-16T08:50:34.951Z,8.63
2019-05-16T08:53:04.859Z,11.30
2019-05-16T08:55:36.429Z,8.07
2019-05-16T08:58:13.211Z,9.00
2019-05-16T09:00:42.055Z,8.70
2019-05-16T09:03:13.751Z,8.80
2019-05-16T09:05:45.323Z,8.17
2019-05-16T09:08:16.894Z,8.47
2019-05-16T09:10:59.721Z,8.20
2019-05-16T09:13:21.733Z,7.70
2019-05-16T09:15:53.304Z,8.83
2019-05-16T09:18:28.229Z,8.87
2019-05-16T09:20:58.262Z,9.77
2019-05-16T09:23:29.820Z,7.50
2019-05-16T09:26:01.379Z,6.57
2019-05-16T09:28:33.051Z,6.80
2019-05-16T09:31:07.142Z,8.40
2019-05-16T09:33:37.936Z,8.97
2019-05-16T09:36:09.509Z,6.60
2019-05-16T09:38:41.071Z,7.13
2019-05-16T09:41:12.632Z,6.60
2019-05-16T09:43:44.203Z,7.53
2019-05-16T09:46:17.192Z,7.60
2019-05-16T09:48:49.327Z,7.73
2019-05-16T09:51:21.494Z,8.73
2019-05-16T09:53:53.131Z,7.30
2019-05-16T09:56:26.854Z,10.67
2019-05-16T09:58:57.950Z,10.00
2019-05-16T10:01:29.527Z,7.93
2019-05-16T10:04:01.098Z,9.47
2019-05-16T10:06:32.686Z,10.67
2019-05-16T10:09:06.417Z,6.80
2019-05-16T10:11:41.762Z,6.37
2019-05-16T10:14:11.510Z,7.30
2019-05-16T10:16:43.403Z,6.20
2019-05-16T10:19:16.916Z,7.83
2019-05-16T10:21:48.241Z,6.00
2019-05-16T10:24:19.831Z,9.27
2019-05-16T10:26:53.956Z,5.17
2019-05-16T10:29:27.139Z,6.07
2019-05-16T10:31:57.953Z,6.67
2019-05-16T10:34:29.631Z,6.27
2019-05-16T10:37:01.515Z,5.85
2019-05-16T10:39:33.093Z,5.57
2019-05-16T10:42:06.682Z,5.33
2019-05-16T10:44:38.842Z,6.40
2019-05-16T10:47:10.579Z,4.97
2019-05-16T10:49:42.177Z,7.83
2019-05-16T10:52:16.453Z,5.10
2019-05-16T10:54:57.560Z,5.87
2019-05-16T10:57:20.420Z,4.40
2019-05-16T11:00:05.195Z,7.30
2019-05-16T11:02:27.575Z,4.60
2019-05-16T11:05:08.463Z,6.17
2019-05-16T11:07:32.158Z,4.60
2019-05-16T11:10:06.748Z,5.60
2019-05-16T11:12:47.550Z,5.90
2019-05-16T11:15:11.998Z,6.20
2019-05-16T11:17:43.602Z,7.23
2019-05-16T11:20:19.670Z,7.73
2019-05-16T11:22:50.087Z,5.50
2019-05-16T11:25:28.786Z,6.13
2019-05-16T11:27:57.433Z,6.93
2019-05-16T11:30:28.776Z,5.10
2019-05-16T11:33:00.373Z,4.90
2019-05-16T11:35:33.058Z,4.90
2019-05-16T11:38:07.129Z,6.17
2019-05-16T11:40:38.989Z,4.80
2019-05-16T11:43:17.736Z,6.63
2019-05-16T11:45:43.845Z,6.63
2019-05-16T11:48:17.061Z,8.50
2019-05-16T11:50:48.906Z,4.60
2019-05-16T11:53:20.495Z,6.57
2019-05-16T11:55:57.682Z,5.03
2019-05-16T11:58:26.651Z,5.17
2019-05-16T12:00:58.389Z,5.67
2019-05-16T12:03:29.992Z,7.20
2019-05-16T12:06:01.573Z,6.73
2019-05-16T12:08:33.198Z,7.47
2019-05-16T12:11:06.863Z,5.70
2019-05-16T12:13:38.093Z,5.30
2019-05-16T12:16:09.680Z,9.80
2019-05-16T12:18:41.272Z,5.43
2019-05-16T12:21:12.858Z,6.33
2019-05-16T12:23:47.124Z,7.00
2019-05-16T12:26:18.024Z,6.17
2019-05-16T12:28:49.594Z,6.30
2019-05-16T12:31:21.151Z,5.07
2019-05-16T12:33:52.770Z,5.50
2019-05-16T12:36:26.624Z,4.73
2019-05-16T12:38:57.658Z,6.53
2019-05-16T12:41:29.203Z,6.77
2019-05-16T12:44:01.070Z,6.62
2019-05-16T12:46:32.684Z,7.20
2019-05-16T12:49:06.860Z,6.60
2019-05-16T12:51:37.556Z,6.53
2019-05-16T12:54:09.152Z,5.50
2019-05-16T12:56:41.789Z,4.73
2019-05-16T12:59:20.548Z,6.80
2019-05-16T13:01:48.134Z,4.60
2019-05-16T13:04:21.025Z,6.80
2019-05-16T13:06:52.582Z,6.00
2019-05-16T13:09:26.386Z,4.87
2019-05-16T13:11:57.810Z,5.30
2019-05-16T13:14:29.506Z,5.60
2019-05-16T13:17:01.068Z,6.50
2019-05-16T13:19:34.291Z,5.90
2019-05-16T13:22:07.331Z,6.70
2019-05-16T13:24:40.108Z,6.23
2019-05-16T13:27:11.991Z,6.43
2019-05-16T13:29:43.607Z,5.57
2019-05-16T13:32:17.238Z,6.80
2019-05-16T13:34:48.445Z,5.63
2019-05-16T13:37:20.026Z,6.73
2019-05-16T13:39:51.688Z,5.50
2019-05-16T13:42:23.273Z,4.80
2019-05-16T13:44:54.842Z,5.03
2019-05-16T13:47:26.909Z,4.50
2019-05-16T13:49:58.511Z,4.97
2019-05-16T13:52:30.091Z,6.07
2019-05-16T13:55:01.649Z,5.10
2019-05-16T13:57:33.236Z,5.70
2019-05-16T14:00:07.546Z,4.60
2019-05-16T14:02:39.578Z,6.53
2019-05-16T14:05:13.325Z,5.63
2019-05-16T14:07:47.493Z,5.10
2019-05-16T14:10:18.687Z,4.90
2019-05-16T14:12:50.499Z,6.20
2019-05-16T14:15:22.279Z,5.50
2019-05-16T14:17:56.667Z,6.40
2019-05-16T14:20:27.280Z,6.83
2019-05-16T14:23:01.615Z,7.23
2019-05-16T14:25:32.164Z,5.60
2019-05-16T14:28:07.421Z,5.00
2019-05-16T14:30:38.302Z,5.20
2019-05-16T14:33:13.841Z,4.23
2019-05-16T14:35:43.256Z,5.40
2019-05-16T14:38:17.345Z,5.17
2019-05-16T14:40:50.278Z,6.70
2019-05-16T14:43:21.440Z,7.10
2019-05-16T14:45:53.074Z,6.47
2019-05-16T14:48:27.576Z,5.80
2019-05-16T14:50:58.046Z,5.30
2019-05-16T14:53:29.704Z,4.50
2019-05-16T14:56:01.302Z,4.57
2019-05-16T14:58:32.919Z,8.07
2019-05-16T15:01:07.165Z,4.93
2019-05-16T15:03:39.070Z,4.60
2019-05-16T15:06:10.642Z,4.67
2019-05-16T15:08:42.275Z,4.10
2019-05-16T15:11:14.686Z,4.83
2019-05-16T15:13:47.168Z,6.47
2019-05-16T15:16:18.738Z,5.70
2019-05-16T15:18:50.346Z,8.77
2019-05-16T15:21:21.966Z,5.93
2019-05-16T15:23:53.574Z,5.23
2019-05-16T15:26:26.744Z,3.77
2019-05-16T15:28:59.606Z,6.30
2019-05-16T15:31:31.169Z,7.33
2019-05-16T15:34:02.774Z,4.73
2019-05-16T15:36:37.231Z,5.20
2019-05-16T15:39:10.044Z,6.90
2019-05-16T15:41:41.647Z,5.63
2019-05-16T15:44:13.274Z,4.10
2019-05-16T15:46:44.873Z,3.93
2019-05-16T15:49:17.229Z,5.50
2019-05-16T15:51:49.925Z,5.40
2019-05-16T15:54:28.281Z,4.60
2019-05-16T15:56:57.854Z,4.90
2019-05-16T15:59:29.536Z,5.37
2019-05-16T16:02:01.082Z,5.00
2019-05-16T16:04:32.712Z,5.27
2019-05-16T16:07:07.396Z,5.50
2019-05-16T16:09:38.075Z,5.20
2019-05-16T16:12:10.807Z,5.90
2019-05-16T16:14:42.930Z,4.50
2019-05-16T16:17:14.516Z,4.80
2019-05-16T16:19:46.968Z,4.87
2019-05-16T16:22:18.702Z,4.77
2019-05-16T16:24:50.313Z,4.67
2019-05-16T16:27:21.903Z,4.83
2019-05-16T16:29:53.507Z,8.00
2019-05-16T16:32:26.850Z,6.13
2019-05-16T16:34:58.700Z,4.20
2019-05-16T16:37:30.294Z,4.37
2019-05-16T16:40:01.926Z,4.40
2019-05-16T16:42:37.329Z,5.73
2019-05-16T16:45:09.029Z,5.87
2019-05-16T16:47:40.665Z,4.03
2019-05-16T16:50:12.680Z,18.57
2019-05-16T16:52:44.373Z,6.47
2019-05-16T16:55:16.976Z,17.00
2019-05-16T16:57:48.703Z,15.17
2019-05-16T17:00:20.821Z,8.00
2019-05-16T17:03:03.281Z,25.80
2019-05-16T17:05:26.522Z,28.10
2019-05-16T17:07:58.390Z,24.27
2019-05-16T17:10:30.057Z,20.80
2019-05-16T17:13:01.684Z,68.87
2019-05-16T17:15:33.320Z,23.60
2019-05-16T17:18:07.033Z,19.83
2019-05-16T17:20:38.396Z,11.10
2019-05-16T17:23:10.117Z,6.33
2019-05-16T17:25:41.714Z,5.47
2019-05-16T17:28:13.334Z,13.93
2019-05-16T17:30:47.030Z,6.37
2019-05-16T17:33:19.037Z,7.83
2019-05-16T17:35:50.641Z,6.93
2019-05-16T17:38:22.353Z,7.10
2019-05-16T17:40:53.949Z,8.73
2019-05-16T17:43:27.078Z,4.37
2019-05-16T17:45:58.913Z,5.33
2019-05-16T17:48:30.627Z,4.90
2019-05-16T17:51:02.371Z,5.50
2019-05-16T17:53:33.968Z,4.57
2019-05-16T17:56:06.927Z,5.80
2019-05-16T17:58:38.858Z,7.73
2019-05-16T18:01:11.526Z,6.07
2019-05-16T18:03:43.185Z,20.60
2019-05-16T18:06:16.959Z,9.13
2019-05-16T18:08:48.476Z,5.03
2019-05-16T18:11:20.115Z,6.50
2019-05-16T18:13:51.738Z,6.37
2019-05-16T18:16:23.348Z,4.27
2019-05-16T18:18:57.343Z,5.63
2019-05-16T18:21:28.329Z,5.33
2019-05-16T18:23:59.938Z,5.90
2019-05-16T18:26:31.566Z,6.80
2019-05-16T18:29:03.198Z,5.50
2019-05-16T18:31:37.154Z,11.70
2019-05-16T18:34:08.084Z,6.43
2019-05-16T18:36:39.847Z,7.20
2019-05-16T18:39:11.533Z,7.20
2019-05-16T18:41:43.309Z,7.80
2019-05-16T18:44:16.726Z,8.37
2019-05-16T18:46:48.458Z,6.73
2019-05-16T18:49:23.914Z,9.53
2019-05-16T18:51:54.425Z,8.50
2019-05-16T18:54:26.705Z,8.60
2019-05-16T18:56:58.420Z,10.53
2019-05-16T18:59:30.030Z,8.90
2019-05-16T19:02:01.620Z,9.37
2019-05-16T19:04:33.321Z,9.27
2019-05-16T19:07:07.643Z,7.47
2019-05-16T19:09:38.194Z,8.80
2019-05-16T19:12:09.812Z,8.23
2019-05-16T19:14:41.403Z,8.00
2019-05-16T19:17:22.232Z,8.63
2019-05-16T19:19:46.437Z,8.77
2019-05-16T19:22:18.094Z,8.60
2019-05-16T19:24:49.974Z,9.93
2019-05-16T19:27:21.741Z,9.23
2019-05-16T19:29:53.382Z,9.10
2019-05-16T19:32:25.021Z,9.73
2019-05-16T19:34:58.386Z,9.57
2019-05-16T19:37:31.227Z,11.60
2019-05-16T19:40:03.024Z,10.50
2019-05-16T19:42:36.769Z,9.03
2019-05-16T19:45:08.070Z,9.30
2019-05-16T19:47:41.246Z,11.50
2019-05-16T19:50:15.004Z,13.07
2019-05-16T19:52:47.213Z,11.20
2019-05-16T19:55:19.013Z,12.33
2019-05-16T19:57:50.588Z,12.17
2019-05-16T20:00:22.614Z,10.73
2019-05-16T20:02:56.963Z,11.83
2019-05-16T20:05:29.752Z,11.70
2019-05-16T20:08:01.375Z,11.63
2019-05-16T20:10:32.982Z,11.60
2019-05-16T20:13:04.570Z,12.27
2019-05-16T20:15:36.760Z,12.23
2019-05-16T20:18:08.454Z,11.80
2019-05-16T20:20:40.157Z,11.87
2019-05-16T20:23:12.836Z,14.53
2019-05-16T20:25:46.877Z,11.80
2019-05-16T20:28:18.595Z,12.80
2019-05-16T20:30:51.988Z,12.57
2019-05-16T20:33:23.592Z,12.57
2019-05-16T20:35:57.477Z,11.40
2019-05-16T20:38:29.016Z,11.50
2019-05-16T20:41:00.630Z,12.13
2019-05-16T20:43:32.258Z,15.13
2019-05-16T20:46:03.881Z,12.23
2019-05-16T20:48:36.908Z,13.23
2019-05-16T20:51:10.014Z,13.83
2019-05-16T20:53:41.608Z,17.20
2019-05-16T20:56:13.244Z,14.30
2019-05-16T20:58:46.670Z,14.80
2019-05-16T21:01:18.328Z,14.33
2019-05-16T21:03:50.022Z,13.50
2019-05-16T21:06:21.657Z,12.97
2019-05-16T21:08:53.329Z,12.47
2019-05-16T21:11:26.434Z,13.30
2019-05-16T21:13:58.094Z,12.80
2019-05-16T21:16:29.709Z,13.30
2019-05-16T21:19:01.325Z,14.57
2019-05-16T21:21:32.902Z,13.40
2019-05-16T21:24:06.616Z,13.10
2019-05-16T21:26:37.803Z,15.13
2019-05-16T21:29:11.055Z,15.87
2019-05-16T21:31:42.638Z,12.80
2019-05-16T21:34:16.155Z,12.93
2019-05-16T21:36:48.664Z,13.23
2019-05-16T21:39:20.289Z,14.20
2019-05-16T21:41:51.910Z,15.43
2019-05-16T21:44:23.524Z,16.23
2019-05-16T21:46:56.440Z,13.47
2019-05-16T21:49:28.224Z,13.43
2019-05-16T21:52:00.957Z,13.10
2019-05-16T21:54:32.570Z,14.90
2019-05-16T21:57:04.199Z,14.63
2019-05-16T21:59:37.548Z,14.50
2019-05-16T22:02:09.482Z,16.17
2019-05-16T22:04:44.280Z,20.67
2019-05-16T22:07:17.028Z,14.97
2019-05-16T22:09:48.677Z,15.40
2019-05-16T22:12:21.541Z,15.63
2019-05-16T22:14:57.085Z,14.40
2019-05-16T22:17:28.182Z,15.13
2019-05-16T22:19:59.882Z,17.23
2019-05-16T22:22:31.455Z,15.47
2019-05-16T22:25:03.091Z,14.70
2019-05-16T22:27:34.863Z,15.13
2019-05-16T22:30:11.393Z,15.30
2019-05-16T22:32:42.976Z,16.10
2019-05-16T22:35:16.782Z,15.50
2019-05-16T22:37:55.480Z,18.00
2019-05-16T22:40:22.442Z,15.10
2019-05-16T22:42:54.079Z,17.27
2019-05-16T22:45:27.115Z,17.23
2019-05-16T22:47:58.930Z,16.67
2019-05-16T22:50:30.558Z,17.33
2019-05-16T22:53:02.172Z,17.07
2019-05-16T22:55:33.785Z,19.43
2019-05-16T22:58:07.424Z,16.47
2019-05-16T23:00:41.273Z,17.87
2019-05-16T23:03:12.396Z,18.00
2019-05-16T23:05:44.003Z,17.73
2019-05-16T23:08:16.435Z,18.07
2019-05-16T23:10:48.148Z,17.27
2019-05-16T23:13:19.767Z,18.03
2019-05-16T23:15:51.396Z,18.70
2019-05-16T23:18:23.011Z,18.27
2019-05-16T23:20:56.798Z,18.83
2019-05-16T23:23:27.944Z,19.67
2019-05-16T23:25:59.520Z,19.80
2019-05-16T23:28:31.113Z,17.93
2019-05-16T23:31:02.726Z,18.93
2019-05-16T23:33:36.362Z,18.33
2019-05-16T23:36:07.635Z,19.77
2019-05-16T23:38:39.391Z,18.40
2019-05-16T23:41:11.021Z,19.67
2019-05-16T23:43:42.621Z,20.43
2019-05-16T23:46:16.390Z,19.67
2019-05-16T23:48:47.535Z,20.00
2019-05-16T23:51:19.133Z,19.37
2019-05-16T23:53:50.709Z,19.60
2019-05-16T23:56:22.345Z,19.53
2019-05-16T23:58:53.984Z,19.70
